Time;durP1;ratioP1;P1;durP2;ratioP2;P2;SDS_P1;SDS_P2;PMS_P1;PMS_P2;Temp;Humidity;BMP_temperature;BMP_pressure;BME280_temperature;BME280_humidity;BME280_pressure;Samples;Min_cycle;Max_cycle;Signal;HPM_P1;HPM_P2
2022/08/20 00:01:40;;;;;;;6.65;3.17;;;;;;;;;;5025500;28;20098;-86
2022/08/20 00:04:06;;;;;;;6.72;3.15;;;;;;;;;;5044132;28;20116;-86
2022/08/20 00:06:32;;;;;;;7.32;3.38;;;;;;;;;;5046088;28;20025;-86
2022/08/20 00:08:57;;;;;;;6.18;2.80;;;;;;;;;;5030397;28;20025;-86
2022/08/20 00:11:24;;;;;;;8.37;2.40;;;;;;;;;;5032285;28;20028;-86
2022/08/20 00:13:51;;;;;;;10.90;3.08;;;;;;;;;;5032752;28;20451;-85
2022/08/20 00:16:17;;;;;;;15.32;3.53;;;;;;;;;;5014192;28;20022;-86
2022/08/20 00:18:43;;;;;;;6.93;3.78;;;;;;;;;;5032283;28;20024;-86
2022/08/20 00:21:10;;;;;;;9.60;3.53;;;;;;;;;;5048143;28;20024;-85
2022/08/20 00:23:36;;;;;;;16.40;3.70;;;;;;;;;;5032071;28;20074;-85
2022/08/20 00:26:02;;;;;;;10.15;3.47;;;;;;;;;;5050450;28;20025;-86
2022/08/20 00:28:27;;;;;;;6.88;4.18;;;;;;;;;;5050939;28;20507;-87
2022/08/20 00:30:52;;;;;;;12.48;4.88;;;;;;;;;;5032507;28;20029;-86
2022/08/20 00:33:20;;;;;;;9.50;5.37;;;;;;;;;;5031238;28;20036;-86
2022/08/20 00:35:47;;;;;;;12.07;5.35;;;;;;;;;;5031108;28;20647;-86
2022/08/20 00:38:12;;;;;;;11.90;5.60;;;;;;;;;;5042809;28;20056;-87
2022/08/20 00:40:43;;;;;;;9.23;5.38;;;;;;;;;;5033165;28;20029;-85
2022/08/20 00:43:23;;;;;;;12.40;5.72;;;;;;;;;;5050430;28;20100;-86
2022/08/20 00:45:49;;;;;;;;;;;;;;;;;;5031100;28;20016;-86
2022/08/20 00:48:15;;;;;;;11.98;6.18;;;;;;;;;;5046061;28;19963;-86
2022/08/20 00:50:40;;;;;;;12.18;6.05;;;;;;;;;;5030728;28;20048;-86
2022/08/20 00:53:07;;;;;;;12.73;6.05;;;;;;;;;;5049743;28;20452;-86
2022/08/20 00:55:32;;;;;;;11.65;6.07;;;;;;;;;;5041045;28;20477;-86
2022/08/20 00:57:59;;;;;;;14.52;6.32;;;;;;;;;;5032582;28;20028;-86
2022/08/20 01:00:27;;;;;;;13.40;6.50;;;;;;;;;;5032700;28;20021;-86
2022/08/20 01:02:53;;;;;;;14.48;6.20;;;;;;;;;;5047466;28;20025;-87
2022/08/20 01:05:20;;;;;;;13.07;7.07;;;;;;;;;;5030754;28;20028;-86
2022/08/20 01:07:45;;;;;;;10.82;6.80;;;;;;;;;;5031810;28;20407;-86
2022/08/20 01:10:15;;;;;;;22.15;6.35;;;;;;;;;;5017382;28;20017;-86
2022/08/20 01:12:40;;;;;;;;;;;;;;;;;;5046046;28;20052;-86
2022/08/20 01:15:08;;;;;;;8.00;5.65;;;;;;;;;;5047697;28;19956;-86
2022/08/20 01:17:35;;;;;;;10.18;6.60;;;;;;;;;;5029423;28;20150;-86
2022/08/20 01:20:05;;;;;;;9.30;6.22;;;;;;;;;;5045836;28;20020;-86
2022/08/20 01:25:42;;;;;;;16.60;6.75;;;;;;;;;;5043279;28;20452;-85
2022/08/20 01:28:09;;;;;;;10.48;5.15;;;;;;;;;;5048371;28;20570;-86
2022/08/20 01:30:34;;;;;;;13.02;5.60;;;;;;;;;;5048749;28;20028;-86
2022/08/20 01:33:01;;;;;;;14.18;6.18;;;;;;;;;;5046163;28;20115;-87
2022/08/20 01:35:27;;;;;;;10.13;6.25;;;;;;;;;;5027475;28;20021;-86
2022/08/20 01:37:53;;;;;;;7.95;5.53;;;;;;;;;;5030245;28;20493;-86
2022/08/20 01:40:22;;;;;;;9.68;5.45;;;;;;;;;;5046572;28;20024;-86
2022/08/20 01:42:49;;;;;;;11.30;6.28;;;;;;;;;;5029492;28;20055;-86
2022/08/20 01:45:14;;;;;;;11.63;5.57;;;;;;;;;;5022653;28;20017;-86
2022/08/20 01:47:39;;;;;;;8.23;5.28;;;;;;;;;;5028855;28;20032;-86
2022/08/20 01:50:12;;;;;;;11.55;4.80;;;;;;;;;;5028920;28;20028;-86
2022/08/20 01:52:41;;;;;;;13.30;5.35;;;;;;;;;;5029246;28;20112;-86
2022/08/20 01:55:07;;;;;;;14.18;4.90;;;;;;;;;;5030909;28;20133;-86
2022/08/20 01:57:33;;;;;;;8.63;5.20;;;;;;;;;;5030021;28;20062;-86
2022/08/20 01:59:59;;;;;;;8.82;4.65;;;;;;;;;;5021523;28;20397;-86
2022/08/20 02:02:24;;;;;;;8.30;4.22;;;;;;;;;;5043411;28;20105;-86
2022/08/20 02:04:49;;;;;;;8.68;4.97;;;;;;;;;;5028658;28;20028;-86
2022/08/20 02:07:17;;;;;;;7.25;4.22;;;;;;;;;;5047655;28;20056;-86
2022/08/20 02:09:42;;;;;;;15.68;5.13;;;;;;;;;;5047642;28;20416;-86
2022/08/20 02:12:08;;;;;;;10.65;4.90;;;;;;;;;;5028675;28;20075;-86
2022/08/20 02:14:35;;;;;;;8.02;4.95;;;;;;;;;;5029285;28;20086;-85
2022/08/20 02:17:00;;;;;;;12.52;5.00;;;;;;;;;;5028881;28;20052;-86
2022/08/20 02:19:34;;;;;;;9.90;4.55;;;;;;;;;;5046105;28;20051;-86
2022/08/20 02:22:01;;;;;;;10.40;4.95;;;;;;;;;;5029104;28;20013;-86
2022/08/20 02:24:26;;;;;;;10.43;4.82;;;;;;;;;;5046902;28;20101;-85
2022/08/20 02:26:52;;;;;;;9.68;4.63;;;;;;;;;;5029812;28;20445;-86
2022/08/20 02:29:17;;;;;;;8.90;4.65;;;;;;;;;;5039432;28;20116;-88
2022/08/20 02:31:43;;;;;;;11.50;4.82;;;;;;;;;;5045666;28;20020;-87
2022/08/20 02:34:10;;;;;;;8.85;4.22;;;;;;;;;;5032949;28;20029;-86
2022/08/20 02:36:36;;;;;;;10.13;4.47;;;;;;;;;;5031155;28;20504;-86
2022/08/20 02:39:03;;;;;;;8.32;5.13;;;;;;;;;;5032313;28;20086;-86
2022/08/20 02:41:28;;;;;;;12.65;5.05;;;;;;;;;;5051112;28;20281;-86
2022/08/20 02:43:53;;;;;;;9.63;4.40;;;;;;;;;;5032814;28;20442;-86
2022/08/20 02:46:18;;;;;;;7.67;4.33;;;;;;;;;;5047403;28;20024;-86
2022/08/20 02:48:44;;;;;;;12.85;5.30;;;;;;;;;;5031094;28;20270;-86
2022/08/20 02:51:09;;;;;;;8.55;4.55;;;;;;;;;;5026481;28;20028;-86
2022/08/20 02:53:36;;;;;;;13.75;4.75;;;;;;;;;;5051069;28;20061;-86
2022/08/20 02:56:02;;;;;;;10.02;4.85;;;;;;;;;;5050689;28;20103;-86
2022/08/20 02:58:27;;;;;;;11.32;4.30;;;;;;;;;;5050520;28;20100;-86
2022/08/20 03:00:53;;;;;;;9.63;5.10;;;;;;;;;;5030877;28;20024;-86
2022/08/20 03:03:23;;;;;;;10.82;5.05;;;;;;;;;;5048065;28;20272;-86
2022/08/20 03:05:50;;;;;;;13.35;4.90;;;;;;;;;;5033436;28;20017;-86
2022/08/20 03:08:15;;;;;;;11.90;5.00;;;;;;;;;;5050113;28;20021;-86
2022/08/20 03:10:41;;;;;;;8.70;4.55;;;;;;;;;;5033440;28;20507;-87
2022/08/20 03:13:11;;;;;;;9.82;5.07;;;;;;;;;;5029687;28;20111;-86
2022/08/20 03:15:36;;;;;;;21.00;6.13;;;;;;;;;;5031992;28;20121;-86
2022/08/20 03:18:01;;;;;;;17.17;5.50;;;;;;;;;;5032798;28;20104;-86
2022/08/20 03:20:26;;;;;;;11.13;4.93;;;;;;;;;;5049429;28;20029;-86
2022/08/20 03:22:52;;;;;;;11.45;5.85;;;;;;;;;;5048589;28;20021;-87
2022/08/20 03:25:17;;;;;;;10.98;5.68;;;;;;;;;;5033599;28;20025;-86
2022/08/20 03:27:42;;;;;;;12.68;6.22;;;;;;;;;;5032219;28;20387;-87
2022/08/20 03:30:09;;;;;;;12.38;5.15;;;;;;;;;;5048810;28;20082;-86
2022/08/20 03:32:34;;;;;;;12.32;4.82;;;;;;;;;;5046488;28;20060;-86
2022/08/20 03:35:00;;;;;;;10.65;5.35;;;;;;;;;;5044712;28;20041;-86
2022/08/20 03:37:28;;;;;;;10.27;5.07;;;;;;;;;;5032174;28;20025;-87
2022/08/20 03:39:53;;;;;;;10.32;4.38;;;;;;;;;;5023497;28;20025;-86
2022/08/20 03:42:18;;;;;;;10.50;4.93;;;;;;;;;;5048630;28;20354;-86
2022/08/20 03:44:44;;;;;;;10.57;4.77;;;;;;;;;;5044235;28;20275;-86
2022/08/20 03:47:09;;;;;;;11.37;4.80;;;;;;;;;;5048669;28;20323;-86
2022/08/20 03:49:34;;;;;;;9.40;4.73;;;;;;;;;;5047870;28;20401;-86
2022/08/20 03:52:01;;;;;;;7.20;4.07;;;;;;;;;;5031336;28;20759;-87
2022/08/20 03:54:26;;;;;;;12.90;4.28;;;;;;;;;;5042742;28;20024;-87
2022/08/20 03:56:52;;;;;;;14.73;4.43;;;;;;;;;;5030445;28;20025;-86
2022/08/20 03:59:17;;;;;;;10.10;3.80;;;;;;;;;;5031341;28;20029;-86
2022/08/20 04:01:43;;;;;;;8.98;4.03;;;;;;;;;;5034098;28;20275;-86
2022/08/20 04:04:09;;;;;;;9.68;4.40;;;;;;;;;;5030316;28;20017;-86
2022/08/20 04:06:34;;;;;;;7.53;3.63;;;;;;;;;;5050678;28;20019;-86
2022/08/20 04:08:59;;;;;;;9.55;4.40;;;;;;;;;;5032091;28;20428;-87
2022/08/20 04:11:25;;;;;;;11.80;3.63;;;;;;;;;;5029877;28;20459;-87
2022/08/20 04:13:50;;;;;;;7.43;3.83;;;;;;;;;;5030996;28;20060;-87
2022/08/20 04:16:15;;;;;;;11.00;4.32;;;;;;;;;;5030556;28;20275;-86
2022/08/20 04:18:40;;;;;;;6.78;3.58;;;;;;;;;;5048085;28;20120;-87
2022/08/20 04:21:06;;;;;;;8.85;3.88;;;;;;;;;;5031237;28;20060;-86
2022/08/20 04:23:31;;;;;;;6.47;3.30;;;;;;;;;;5030356;28;20078;-86
2022/08/20 04:25:56;;;;;;;5.97;3.53;;;;;;;;;;5030228;28;20295;-86
2022/08/20 04:28:24;;;;;;;5.93;2.83;;;;;;;;;;5049427;28;20025;-86
2022/08/20 04:30:51;;;;;;;6.28;3.78;;;;;;;;;;5048738;28;20104;-86
2022/08/20 04:33:16;;;;;;;8.63;4.50;;;;;;;;;;5047241;28;20377;-86
2022/08/20 04:35:41;;;;;;;9.57;3.67;;;;;;;;;;5048699;28;20021;-87
2022/08/20 04:38:08;;;;;;;8.87;3.97;;;;;;;;;;5048650;28;20029;-87
2022/08/20 04:40:52;;;;;;;8.75;3.50;;;;;;;;;;5030535;28;20264;-87
2022/08/20 04:43:18;;;;;;;6.00;3.25;;;;;;;;;;5029004;28;20017;-86
2022/08/20 04:45:44;;;;;;;8.50;3.55;;;;;;;;;;5031107;28;20028;-87
2022/08/20 04:48:09;;;;;;;4.93;3.10;;;;;;;;;;5046355;28;20025;-86
2022/08/20 04:50:36;;;;;;;8.13;3.15;;;;;;;;;;5048635;28;20025;-87
2022/08/20 04:53:03;;;;;;;4.88;3.15;;;;;;;;;;5029943;28;20025;-86
2022/08/20 04:55:29;;;;;;;11.80;5.57;;;;;;;;;;5042168;28;20082;-86
2022/08/20 04:57:56;;;;;;;6.18;4.18;;;;;;;;;;5028305;28;20028;-86
2022/08/20 05:00:22;;;;;;;8.98;4.93;;;;;;;;;;5032092;28;20029;-88
2022/08/20 05:02:48;;;;;;;13.90;5.32;;;;;;;;;;5030053;28;20080;-87
2022/08/20 05:05:13;;;;;;;17.92;5.88;;;;;;;;;;5030428;28;20392;-86
2022/08/20 05:07:44;;;;;;;12.47;6.37;;;;;;;;;;5030491;28;20040;-86
2022/08/20 05:10:10;;;;;;;10.88;6.25;;;;;;;;;;5030149;28;20279;-86
2022/08/20 05:12:35;;;;;;;19.73;7.35;;;;;;;;;;5042183;28;20020;-86
2022/08/20 05:15:00;;;;;;;11.55;6.82;;;;;;;;;;5047449;28;20048;-86
2022/08/20 05:17:26;;;;;;;13.20;6.93;;;;;;;;;;5047225;28;20021;-86
2022/08/20 05:19:51;;;;;;;16.17;7.47;;;;;;;;;;5038476;28;20485;-86
2022/08/20 05:22:17;;;;;;;21.70;7.60;;;;;;;;;;5046954;28;20092;-87
2022/08/20 05:24:42;;;;;;;22.33;8.98;;;;;;;;;;5030555;28;20021;-88
2022/08/20 05:27:08;;;;;;;20.98;8.20;;;;;;;;;;5028836;28;20021;-88
2022/08/20 05:29:33;;;;;;;14.25;7.30;;;;;;;;;;5047208;28;20013;-88
2022/08/20 05:31:58;;;;;;;15.27;8.57;;;;;;;;;;5028205;28;20504;-88
2022/08/20 05:34:25;;;;;;;18.07;8.30;;;;;;;;;;5047989;28;20275;-88
2022/08/20 05:36:51;;;;;;;13.77;8.60;;;;;;;;;;5029185;28;20271;-88
2022/08/20 05:39:17;;;;;;;14.55;8.48;;;;;;;;;;5031312;28;20052;-88
2022/08/20 05:41:43;;;;;;;17.35;9.90;;;;;;;;;;5043554;28;20072;-87
2022/08/20 05:44:09;;;;;;;19.93;10.57;;;;;;;;;;5039023;28;20114;-87
2022/08/20 05:46:35;;;;;;;29.33;14.82;;;;;;;;;;5037820;28;20251;-88
2022/08/20 05:49:00;;;;;;;29.33;15.00;;;;;;;;;;5048503;22;20559;-64
2022/08/20 05:51:26;;;;;;;32.30;15.90;;;;;;;;;;5030056;28;20465;-64
2022/08/20 05:53:51;;;;;;;34.65;17.58;;;;;;;;;;5029108;28;20018;-64
2022/08/20 05:56:16;;;;;;;49.63;22.10;;;;;;;;;;5023015;28;20169;-63
2022/08/20 05:58:41;;;;;;;61.40;30.87;;;;;;;;;;5030381;28;20234;-64
2022/08/20 06:01:06;;;;;;;77.37;39.03;;;;;;;;;;5031798;28;20025;-64
2022/08/20 06:06:16;;;;;;;64.78;30.75;;;;;;;;;;5030424;28;20561;-64
2022/08/20 06:08:41;;;;;;;73.53;33.30;;;;;;;;;;5030372;28;20116;-64
2022/08/20 06:11:06;;;;;;;66.93;30.63;;;;;;;;;;5030153;28;20052;-63
2022/08/20 06:13:32;;;;;;;72.63;34.70;;;;;;;;;;5030135;28;20061;-64
2022/08/20 06:15:57;;;;;;;71.03;31.13;;;;;;;;;;5029346;28;20028;-63
2022/08/20 06:18:23;;;;;;;66.00;32.70;;;;;;;;;;5029465;28;20124;-64
2022/08/20 06:20:49;;;;;;;71.97;33.72;;;;;;;;;;5030190;28;20252;-63
2022/08/20 06:23:14;;;;;;;62.15;28.30;;;;;;;;;;5030168;28;20020;-63
2022/08/20 06:25:39;;;;;;;59.58;30.30;;;;;;;;;;5030246;28;20022;-64
2022/08/20 06:28:05;;;;;;;60.13;30.97;;;;;;;;;;5030272;28;20104;-64
2022/08/20 06:30:30;;;;;;;60.45;29.60;;;;;;;;;;5021504;28;20280;-65
2022/08/20 06:32:56;;;;;;;63.65;31.50;;;;;;;;;;5027365;28;20477;-64
2022/08/20 06:35:21;;;;;;;64.45;33.60;;;;;;;;;;5029308;28;20037;-64
2022/08/20 06:37:47;;;;;;;63.58;31.48;;;;;;;;;;5030563;28;20025;-64
2022/08/20 06:40:15;;;;;;;70.85;34.17;;;;;;;;;;5030219;28;20098;-64
2022/08/20 06:42:42;;;;;;;59.47;30.77;;;;;;;;;;5029819;28;20020;-64
2022/08/20 06:45:12;;;;;;;63.78;31.05;;;;;;;;;;5020322;28;20021;-64
2022/08/20 06:47:40;;;;;;;57.63;29.60;;;;;;;;;;5027375;28;20033;-63
2022/08/20 06:50:06;;;;;;;62.17;30.70;;;;;;;;;;5028190;28;20029;-64
2022/08/20 06:52:32;;;;;;;67.10;32.65;;;;;;;;;;5028789;28;20481;-62
2022/08/20 06:54:57;;;;;;;62.10;29.87;;;;;;;;;;5028820;28;20040;-64
2022/08/20 06:57:22;;;;;;;50.10;25.85;;;;;;;;;;5026331;28;20357;-63
2022/08/20 06:59:47;;;;;;;53.20;26.87;;;;;;;;;;5025756;28;20052;-63
2022/08/20 07:02:12;;;;;;;55.33;27.23;;;;;;;;;;5028075;28;20636;-63
2022/08/20 07:04:38;;;;;;;53.63;28.73;;;;;;;;;;5022687;28;20474;-64
2022/08/20 07:07:03;;;;;;;56.37;27.03;;;;;;;;;;5026652;28;20279;-64
2022/08/20 07:09:28;;;;;;;56.08;31.55;;;;;;;;;;5028417;28;20057;-64
2022/08/20 07:11:53;;;;;;;57.65;30.30;;;;;;;;;;5027701;28;20450;-63
2022/08/20 07:14:19;;;;;;;61.22;29.98;;;;;;;;;;5029761;28;20529;-64
2022/08/20 07:16:46;;;;;;;59.47;31.13;;;;;;;;;;5028538;28;20021;-63
2022/08/20 07:19:11;;;;;;;65.00;31.70;;;;;;;;;;5024806;28;20045;-64
2022/08/20 07:21:36;;;;;;;57.75;30.20;;;;;;;;;;5030253;28;20056;-64
2022/08/20 07:24:02;;;;;;;52.10;29.23;;;;;;;;;;5024275;28;20068;-63
2022/08/20 07:26:27;;;;;;;44.08;27.10;;;;;;;;;;5030619;28;20362;-64
2022/08/20 07:28:53;;;;;;;49.23;26.70;;;;;;;;;;5032189;28;20495;-63
2022/08/20 07:34:02;;;;;;;46.17;29.08;;;;;;;;;;5029851;28;20028;-64
2022/08/20 07:36:28;;;;;;;50.90;30.02;;;;;;;;;;5031758;28;20033;-63
2022/08/20 07:38:53;;;;;;;62.75;32.92;;;;;;;;;;5030905;28;20051;-64
2022/08/20 07:41:18;;;;;;;65.72;36.05;;;;;;;;;;5032794;28;20105;-63
2022/08/20 07:43:44;;;;;;;57.03;32.60;;;;;;;;;;5032951;28;20377;-63
2022/08/20 07:46:10;;;;;;;60.90;32.70;;;;;;;;;;5033439;28;20033;-64
2022/08/20 07:48:38;;;;;;;61.95;34.95;;;;;;;;;;5033246;28;20075;-64
2022/08/20 07:51:04;;;;;;;67.68;38.72;;;;;;;;;;5030965;28;20072;-63
2022/08/20 07:53:32;;;;;;;61.38;35.25;;;;;;;;;;5030915;28;20025;-63
2022/08/20 07:55:57;;;;;;;67.38;35.25;;;;;;;;;;5032596;28;20060;-64
2022/08/20 07:58:23;;;;;;;55.17;32.80;;;;;;;;;;5031990;28;20057;-63
2022/08/20 08:00:49;;;;;;;58.53;31.17;;;;;;;;;;5032837;28;20041;-64
2022/08/20 08:03:14;;;;;;;51.92;26.95;;;;;;;;;;5025333;28;20045;-63
2022/08/20 08:05:40;;;;;;;45.35;25.83;;;;;;;;;;5031179;28;20398;-63
2022/08/20 08:08:08;;;;;;;41.30;22.88;;;;;;;;;;5031625;28;20037;-64
2022/08/20 08:10:36;;;;;;;37.15;21.15;;;;;;;;;;5032565;28;20082;-63
2022/08/20 08:13:02;;;;;;;38.03;22.23;;;;;;;;;;5025049;28;20108;-64
2022/08/20 08:15:30;;;;;;;37.78;21.27;;;;;;;;;;5026735;28;20151;-64
2022/08/20 08:17:59;;;;;;;41.42;20.58;;;;;;;;;;5031157;28;20108;-64
2022/08/20 08:20:24;;;;;;;37.88;21.58;;;;;;;;;;5031831;28;20585;-64
2022/08/20 08:22:50;;;;;;;45.17;24.37;;;;;;;;;;5031054;28;20021;-64
2022/08/20 08:25:15;;;;;;;53.10;28.83;;;;;;;;;;5032166;28;20252;-63
2022/08/20 08:27:41;;;;;;;48.67;28.60;;;;;;;;;;5030582;28;20017;-64
2022/08/20 08:30:07;;;;;;;47.90;29.23;;;;;;;;;;5031898;28;20021;-64
2022/08/20 08:32:34;;;;;;;58.78;32.38;;;;;;;;;;5028912;28;20025;-64
2022/08/20 08:35:02;;;;;;;51.72;30.80;;;;;;;;;;5030877;28;20029;-64
2022/08/20 08:37:28;;;;;;;69.80;31.98;;;;;;;;;;5031031;28;20029;-63
2022/08/20 08:39:53;;;;;;;60.90;31.47;;;;;;;;;;5031881;28;20020;-63
2022/08/20 08:42:49;;;;;;;63.90;35.15;;;;;;;;;;5030707;28;20398;-63
2022/08/20 08:45:15;;;;;;;56.75;32.08;;;;;;;;;;5014101;28;20036;-64
2022/08/20 08:47:42;;;;;;;54.65;33.38;;;;;;;;;;5031382;28;20029;-63
2022/08/20 08:50:10;;;;;;;51.65;29.40;;;;;;;;;;5029771;28;20048;-64
2022/08/20 08:52:39;;;;;;;46.75;25.80;;;;;;;;;;5031010;28;20028;-63
2022/08/20 08:55:08;;;;;;;46.10;28.52;;;;;;;;;;5030779;28;20131;-65
2022/08/20 08:57:33;;;;;;;49.55;31.25;;;;;;;;;;5029457;28;20041;-63
2022/08/20 09:00:04;;;;;;;58.13;31.23;;;;;;;;;;5030692;28;20056;-64
2022/08/20 09:02:30;;;;;;;59.88;34.17;;;;;;;;;;5030682;28;20648;-65
2022/08/20 09:04:57;;;;;;;59.90;35.08;;;;;;;;;;5031391;28;20024;-64
2022/08/20 09:07:24;;;;;;;68.55;38.58;;;;;;;;;;5030951;28;20021;-63
2022/08/20 09:09:49;;;;;;;60.45;37.72;;;;;;;;;;5031636;28;20780;-65
2022/08/20 09:12:19;;;;;;;73.93;39.13;;;;;;;;;;5030649;28;20017;-63
2022/08/20 09:14:46;;;;;;;68.88;39.53;;;;;;;;;;5030343;28;20095;-63
2022/08/20 09:17:12;;;;;;;72.53;34.13;;;;;;;;;;5031352;28;20021;-64
2022/08/20 09:19:37;;;;;;;74.53;35.78;;;;;;;;;;5030558;28;20104;-64
2022/08/20 09:22:07;;;;;;;59.83;36.60;;;;;;;;;;5031450;28;20028;-63
2022/08/20 09:24:32;;;;;;;62.20;36.78;;;;;;;;;;5022461;28;20775;-64
2022/08/20 09:26:57;;;;;;;67.93;40.27;;;;;;;;;;5030207;28;20037;-64
2022/08/20 09:29:22;;;;;;;73.33;39.67;;;;;;;;;;5029677;28;20268;-64
2022/08/20 09:31:47;;;;;;;57.67;34.47;;;;;;;;;;5030588;28;20112;-64
2022/08/20 09:34:12;;;;;;;52.47;31.60;;;;;;;;;;5030784;28;20021;-64
2022/08/20 09:36:38;;;;;;;48.00;29.93;;;;;;;;;;5030767;28;20782;-64
2022/08/20 09:39:03;;;;;;;52.10;31.50;;;;;;;;;;5029601;28;20443;-64
2022/08/20 09:41:28;;;;;;;60.25;32.35;;;;;;;;;;5029589;28;20272;-64
2022/08/20 09:43:53;;;;;;;58.00;30.40;;;;;;;;;;5027884;28;20018;-64
2022/08/20 09:46:19;;;;;;;48.63;28.63;;;;;;;;;;5028343;28;20044;-65
2022/08/20 09:48:44;;;;;;;51.73;30.30;;;;;;;;;;5029157;28;20108;-64
2022/08/20 09:51:09;;;;;;;49.67;29.17;;;;;;;;;;5023663;28;20359;-64
2022/08/20 09:53:34;;;;;;;41.83;25.90;;;;;;;;;;5029454;28;20793;-67
2022/08/20 09:55:59;;;;;;;41.00;24.83;;;;;;;;;;5022517;28;20409;-64
2022/08/20 09:58:37;;;;;;;43.63;25.13;;;;;;;;;;5028196;28;20064;-64
2022/08/20 10:01:05;;;;;;;45.53;28.88;;;;;;;;;;5024536;28;20024;-64
2022/08/20 10:03:31;;;;;;;45.25;28.77;;;;;;;;;;5026093;28;20021;-64
2022/08/20 10:05:56;;;;;;;52.63;28.77;;;;;;;;;;5027845;28;20047;-64
2022/08/20 10:08:21;;;;;;;50.38;27.08;;;;;;;;;;5025700;28;20764;-64
2022/08/20 10:10:46;;;;;;;49.53;28.25;;;;;;;;;;5029182;28;20022;-64
2022/08/20 10:13:11;;;;;;;41.63;23.60;;;;;;;;;;5028596;28;20698;-64
2022/08/20 10:15:37;;;;;;;39.20;23.65;;;;;;;;;;5029948;28;20256;-64
2022/08/20 10:18:04;;;;;;;38.47;19.40;;;;;;;;;;5030190;28;20033;-64
2022/08/20 10:20:30;;;;;;;34.67;18.85;;;;;;;;;;5030113;28;20280;-64
2022/08/20 10:22:55;;;;;;;28.65;15.60;;;;;;;;;;5029844;28;20049;-64
2022/08/20 10:25:20;;;;;;;29.20;15.27;;;;;;;;;;5029435;28;20025;-64
2022/08/20 10:27:45;;;;;;;26.57;14.00;;;;;;;;;;5028963;28;20640;-64
2022/08/20 10:30:11;;;;;;;27.38;14.32;;;;;;;;;;5029763;28;20262;-64
2022/08/20 10:32:36;;;;;;;28.02;14.90;;;;;;;;;;5029819;28;20549;-64
2022/08/20 10:35:02;;;;;;;33.30;15.57;;;;;;;;;;5030003;28;20299;-64
2022/08/20 10:37:27;;;;;;;30.05;14.05;;;;;;;;;;5030147;28;20267;-64
2022/08/20 10:39:53;;;;;;;29.50;14.93;;;;;;;;;;5028612;28;20025;-64
2022/08/20 10:42:18;;;;;;;32.60;13.63;;;;;;;;;;5028756;28;20386;-64
2022/08/20 10:44:43;;;;;;;32.90;14.50;;;;;;;;;;5029751;28;20024;-64
2022/08/20 10:47:16;;;;;;;30.65;13.02;;;;;;;;;;5029783;28;20025;-64
2022/08/20 10:49:42;;;;;;;25.85;13.75;;;;;;;;;;5030384;28;20043;-64
2022/08/20 10:52:07;;;;;;;27.67;12.57;;;;;;;;;;5029903;28;20482;-64
2022/08/20 10:54:32;;;;;;;23.33;12.50;;;;;;;;;;5032610;28;20288;-64
2022/08/20 10:57:03;;;;;;;23.38;11.55;;;;;;;;;;5032705;28;20272;-64
2022/08/20 10:59:29;;;;;;;16.88;9.25;;;;;;;;;;5033123;28;20026;-64
2022/08/20 11:01:54;;;;;;;18.38;10.05;;;;;;;;;;5033326;28;20382;-64
2022/08/20 11:04:19;;;;;;;23.20;9.63;;;;;;;;;;5033310;28;20025;-64
2022/08/20 11:06:45;;;;;;;20.03;10.10;;;;;;;;;;5032673;28;20726;-64
2022/08/20 11:09:10;;;;;;;21.50;10.83;;;;;;;;;;5032904;28;20292;-64
2022/08/20 11:11:35;;;;;;;21.20;10.87;;;;;;;;;;5032231;28;20275;-64
2022/08/20 11:14:00;;;;;;;24.57;12.17;;;;;;;;;;5032016;28;20838;-64
2022/08/20 11:16:25;;;;;;;26.07;11.27;;;;;;;;;;5033091;28;20021;-64
2022/08/20 11:18:50;;;;;;;25.67;10.43;;;;;;;;;;5033031;28;20667;-64
2022/08/20 11:21:16;;;;;;;20.93;9.67;;;;;;;;;;5031480;28;20354;-65
2022/08/20 11:23:41;;;;;;;21.88;9.98;;;;;;;;;;5030530;28;20560;-64
2022/08/20 11:26:07;;;;;;;19.80;10.03;;;;;;;;;;5032013;28;20469;-65
2022/08/20 11:28:32;;;;;;;25.45;10.60;;;;;;;;;;5033026;28;20288;-64
2022/08/20 11:30:58;;;;;;;16.55;10.15;;;;;;;;;;5033011;28;20025;-64
2022/08/20 11:33:23;;;;;;;18.70;8.20;;;;;;;;;;5032920;28;20026;-65
2022/08/20 11:35:48;;;;;;;19.85;7.97;;;;;;;;;;5032087;28;20025;-64
2022/08/20 11:38:14;;;;;;;24.10;8.70;;;;;;;;;;5027800;28;20021;-64
2022/08/20 11:40:39;;;;;;;19.90;9.65;;;;;;;;;;5033369;28;20616;-64
2022/08/20 11:43:04;;;;;;;22.20;11.20;;;;;;;;;;5032645;28;20028;-64
2022/08/20 11:45:29;;;;;;;24.45;10.70;;;;;;;;;;5033530;28;20405;-65
2022/08/20 11:47:55;;;;;;;20.67;10.52;;;;;;;;;;5032665;28;20029;-64
2022/08/20 11:50:20;;;;;;;18.80;9.10;;;;;;;;;;5032865;28;20592;-64
2022/08/20 11:52:47;;;;;;;19.02;8.95;;;;;;;;;;5027190;28;20060;-64
2022/08/20 11:55:13;;;;;;;15.07;7.57;;;;;;;;;;5032362;28;20100;-64
2022/08/20 11:57:43;;;;;;;13.95;7.80;;;;;;;;;;5032607;28;20116;-64
2022/08/20 12:00:12;;;;;;;20.98;8.68;;;;;;;;;;5032997;28;20009;-64
2022/08/20 12:02:38;;;;;;;20.15;8.52;;;;;;;;;;5032309;28;20108;-63
2022/08/20 12:05:04;;;;;;;16.20;7.18;;;;;;;;;;5031335;28;20113;-65
2022/08/20 12:07:29;;;;;;;20.15;8.90;;;;;;;;;;5031205;28;20448;-64
2022/08/20 12:09:54;;;;;;;25.92;12.55;;;;;;;;;;5032582;28;20075;-64
2022/08/20 12:12:22;;;;;;;18.58;9.48;;;;;;;;;;5032170;28;20434;-65
2022/08/20 12:14:48;;;;;;;19.45;9.88;;;;;;;;;;5030953;28;20485;-64
2022/08/20 12:17:20;;;;;;;34.53;10.27;;;;;;;;;;5032156;28;20323;-64
2022/08/20 12:19:45;;;;;;;21.10;10.35;;;;;;;;;;5031269;28;20470;-64
2022/08/20 12:22:11;;;;;;;20.98;10.70;;;;;;;;;;5031498;28;20321;-65
2022/08/20 12:24:36;;;;;;;19.63;9.20;;;;;;;;;;5032159;28;20432;-65
2022/08/20 12:27:31;;;;;;;19.27;11.45;;;;;;;;;;5031834;28;20735;-64
2022/08/20 12:29:58;;;;;;;25.42;10.32;;;;;;;;;;5013927;28;20075;-64
2022/08/20 12:32:24;;;;;;;19.17;8.57;;;;;;;;;;5030458;28;20033;-64
2022/08/20 12:34:49;;;;;;;19.23;8.88;;;;;;;;;;5031059;28;20078;-65
2022/08/20 12:37:16;;;;;;;19.27;8.45;;;;;;;;;;5031808;28;20108;-65
2022/08/20 12:39:43;;;;;;;17.98;8.63;;;;;;;;;;5031871;28;20053;-64
2022/08/20 12:42:09;;;;;;;13.70;6.85;;;;;;;;;;5030240;28;20025;-65
2022/08/20 12:44:35;;;;;;;25.27;8.73;;;;;;;;;;5029955;28;20127;-64
2022/08/20 12:47:04;;;;;;;17.23;8.90;;;;;;;;;;5030225;28;20021;-65
2022/08/20 12:49:29;;;;;;;19.25;10.00;;;;;;;;;;5031645;28;20029;-65
2022/08/20 12:51:54;;;;;;;14.87;8.47;;;;;;;;;;5031255;28;20203;-65
2022/08/20 12:54:20;;;;;;;18.10;7.63;;;;;;;;;;5031036;28;20496;-65
2022/08/20 12:56:45;;;;;;;16.67;7.43;;;;;;;;;;5028427;28;20056;-65
2022/08/20 12:59:10;;;;;;;15.02;6.88;;;;;;;;;;5021113;28;20033;-65
2022/08/20 13:01:35;;;;;;;16.33;7.27;;;;;;;;;;5029474;28;20116;-65
2022/08/20 13:04:01;;;;;;;18.30;6.77;;;;;;;;;;5027598;28;20032;-65
2022/08/20 13:06:26;;;;;;;18.37;7.30;;;;;;;;;;5031880;28;20099;-65
2022/08/20 13:08:51;;;;;;;17.47;6.80;;;;;;;;;;5027225;28;20669;-65
2022/08/20 13:11:16;;;;;;;15.80;9.10;;;;;;;;;;5029924;28;20308;-65
2022/08/20 13:13:42;;;;;;;16.30;9.10;;;;;;;;;;5031075;28;20021;-64
2022/08/20 13:16:07;;;;;;;18.40;8.07;;;;;;;;;;5027674;28;20096;-65
2022/08/20 13:18:32;;;;;;;12.47;7.27;;;;;;;;;;5025161;28;20068;-65
2022/08/20 13:20:57;;;;;;;18.67;8.13;;;;;;;;;;5030580;28;20248;-65
2022/08/20 13:23:23;;;;;;;16.20;7.10;;;;;;;;;;5031114;28;20045;-65
2022/08/20 13:25:48;;;;;;;16.93;6.87;;;;;;;;;;5031039;28;20013;-65
2022/08/20 13:28:13;;;;;;;18.77;6.87;;;;;;;;;;5030988;28;20256;-65
2022/08/20 13:30:40;;;;;;;13.23;6.38;;;;;;;;;;5029781;28;20048;-65
2022/08/20 13:33:05;;;;;;;18.08;8.48;;;;;;;;;;5029515;28;20056;-65
2022/08/20 13:35:30;;;;;;;11.95;6.65;;;;;;;;;;5030697;28;20025;-65
2022/08/20 13:37:56;;;;;;;12.48;5.85;;;;;;;;;;5030703;28;20021;-65
2022/08/20 13:40:21;;;;;;;17.50;6.83;;;;;;;;;;5029832;28;20028;-65
2022/08/20 13:42:46;;;;;;;17.57;6.50;;;;;;;;;;5030101;28;20280;-65
2022/08/20 13:45:11;;;;;;;19.73;8.05;;;;;;;;;;5030634;28;20013;-65
2022/08/20 13:47:37;;;;;;;15.45;7.13;;;;;;;;;;5029279;28;20022;-65
2022/08/20 13:50:05;;;;;;;16.25;6.68;;;;;;;;;;5030318;28;20032;-65
2022/08/20 13:52:31;;;;;;;24.88;7.85;;;;;;;;;;5030094;28;20032;-65
2022/08/20 13:54:57;;;;;;;17.85;6.80;;;;;;;;;;5029481;28;20025;-65
2022/08/20 13:57:23;;;;;;;14.97;5.83;;;;;;;;;;5030847;28;20028;-65
2022/08/20 13:59:49;;;;;;;17.02;5.60;;;;;;;;;;5030491;28;20481;-65
2022/08/20 14:02:15;;;;;;;16.17;5.90;;;;;;;;;;5028646;28;20155;-65
2022/08/20 14:04:41;;;;;;;20.25;5.68;;;;;;;;;;5027793;28;20444;-65
2022/08/20 14:07:09;;;;;;;19.38;7.45;;;;;;;;;;5027193;28;20033;-65
2022/08/20 14:09:35;;;;;;;13.93;4.97;;;;;;;;;;5027404;28;20036;-65
2022/08/20 14:12:01;;;;;;;16.65;5.50;;;;;;;;;;5026187;28;20082;-65
2022/08/20 14:14:26;;;;;;;13.13;4.93;;;;;;;;;;5023374;28;20060;-65
2022/08/20 14:16:51;;;;;;;14.60;4.53;;;;;;;;;;5027787;28;20025;-65
2022/08/20 14:19:16;;;;;;;15.83;5.17;;;;;;;;;;5027855;28;20022;-65
2022/08/20 14:21:41;;;;;;;14.37;4.43;;;;;;;;;;5029823;28;20017;-65
2022/08/20 14:24:06;;;;;;;13.53;4.50;;;;;;;;;;5028816;28;20056;-65
2022/08/20 14:26:32;;;;;;;12.67;4.27;;;;;;;;;;5029449;28;20029;-65
2022/08/20 14:28:57;;;;;;;14.47;4.30;;;;;;;;;;5033951;28;20021;-65